sensor_id;sensor_type;location;lat;lon;timestamp;pressure;altitude;pressure_sealevel;temperature;humidity
19748;BME280;10032;51.386;12.516;2024-03-06T00:02:18;100418.19;;;5.61;100.00
19748;BME280;10032;51.386;12.516;2024-03-06T00:04:43;100412.19;;;5.59;100.00
19748;BME280;10032;51.386;12.516;2024-03-06T00:07:09;100412.00;;;5.54;100.00
19748;BME280;10032;51.386;12.516;2024-03-06T00:09:34;100416.78;;;5.52;100.00
19748;BME280;10032;51.386;12.516;2024-03-06T00:12:00;100408.50;;;5.53;100.00
19748;BME280;10032;51.386;12.516;2024-03-06T00:14:25;100412.63;;;5.49;100.00
19748;BME280;10032;51.386;12.516;2024-03-06T00:16:51;100420.09;;;5.47;100.00
19748;BME280;10032;51.386;12.516;2024-03-06T00:19:19;100426.50;;;5.46;100.00
19748;BME280;10032;51.386;12.516;2024-03-06T00:21:45;100421.34;;;5.38;100.00
19748;BME280;10032;51.386;12.516;2024-03-06T00:24:14;100428.38;;;5.39;100.00
19748;BME280;10032;51.386;12.516;2024-03-06T00:26:44;100418.25;;;5.35;100.00
19748;BME280;10032;51.386;12.516;2024-03-06T00:29:10;100418.91;;;5.30;100.00
19748;BME280;10032;51.386;12.516;2024-03-06T00:31:37;100425.28;;;5.29;100.00
19748;BME280;10032;51.386;12.516;2024-03-06T00:34:07;100423.84;;;5.27;100.00
19748;BME280;10032;51.386;12.516;2024-03-06T00:36:32;100430.88;;;5.21;100.00
19748;BME280;10032;51.386;12.516;2024-03-06T00:38:58;100430.47;;;5.18;100.00
19748;BME280;10032;51.386;12.516;2024-03-06T00:41:24;100435.22;;;5.09;100.00
19748;BME280;10032;51.386;12.516;2024-03-06T00:43:49;100442.84;;;5.06;100.00
19748;BME280;10032;51.386;12.516;2024-03-06T00:46:15;100455.66;;;4.97;100.00
19748;BME280;10032;51.386;12.516;2024-03-06T00:48:40;100459.38;;;4.96;100.00
19748;BME280;10032;51.386;12.516;2024-03-06T00:51:06;100461.44;;;4.94;100.00
19748;BME280;10032;51.386;12.516;2024-03-06T00:53:33;100465.97;;;4.87;100.00
19748;BME280;10032;51.386;12.516;2024-03-06T00:55:59;100466.78;;;4.81;100.00
19748;BME280;10032;51.386;12.516;2024-03-06T00:58:25;100468.66;;;4.81;100.00
19748;BME280;10032;51.386;12.516;2024-03-06T01:00:50;100464.75;;;4.83;100.00
19748;BME280;10032;51.386;12.516;2024-03-06T01:03:16;100476.50;;;4.82;100.00
19748;BME280;10032;51.386;12.516;2024-03-06T01:05:42;100475.47;;;4.77;100.00
19748;BME280;10032;51.386;12.516;2024-03-06T01:08:07;100472.34;;;4.67;100.00
19748;BME280;10032;51.386;12.516;2024-03-06T01:10:32;100471.28;;;4.61;100.00
19748;BME280;10032;51.386;12.516;2024-03-06T01:12:58;100480.16;;;4.55;100.00
19748;BME280;10032;51.386;12.516;2024-03-06T01:15:23;100477.47;;;4.55;100.00
19748;BME280;10032;51.386;12.516;2024-03-06T01:17:49;100482.84;;;4.49;100.00
19748;BME280;10032;51.386;12.516;2024-03-06T01:20:15;100480.75;;;4.44;100.00
19748;BME280;10032;51.386;12.516;2024-03-06T01:22:41;100486.53;;;4.41;100.00
19748;BME280;10032;51.386;12.516;2024-03-06T01:25:06;100482.41;;;4.39;100.00
19748;BME280;10032;51.386;12.516;2024-03-06T01:27:32;100485.06;;;4.32;100.00
19748;BME280;10032;51.386;12.516;2024-03-06T01:29:58;100490.22;;;4.34;100.00
19748;BME280;10032;51.386;12.516;2024-03-06T01:32:23;100485.66;;;4.34;100.00
19748;BME280;10032;51.386;12.516;2024-03-06T01:34:48;100490.81;;;4.29;100.00
19748;BME280;10032;51.386;12.516;2024-03-06T01:37:14;100499.28;;;4.26;100.00
19748;BME280;10032;51.386;12.516;2024-03-06T01:39:39;100504.78;;;4.18;100.00
19748;BME280;10032;51.386;12.516;2024-03-06T01:42:04;100491.16;;;4.13;100.00
19748;BME280;10032;51.386;12.516;2024-03-06T01:44:30;100500.41;;;4.11;100.00
19748;BME280;10032;51.386;12.516;2024-03-06T01:46:56;100504.97;;;4.10;100.00
19748;BME280;10032;51.386;12.516;2024-03-06T01:49:22;100514.00;;;4.03;100.00
19748;BME280;10032;51.386;12.516;2024-03-06T01:51:50;100509.44;;;3.97;100.00
19748;BME280;10032;51.386;12.516;2024-03-06T01:54:16;100511.28;;;3.96;100.00
19748;BME280;10032;51.386;12.516;2024-03-06T01:56:47;100510.66;;;3.94;100.00
19748;BME280;10032;51.386;12.516;2024-03-06T01:59:15;100511.88;;;3.92;100.00
19748;BME280;10032;51.386;12.516;2024-03-06T02:01:40;100513.13;;;3.89;100.00
19748;BME280;10032;51.386;12.516;2024-03-06T02:04:06;100514.72;;;3.84;100.00
19748;BME280;10032;51.386;12.516;2024-03-06T02:06:35;100511.84;;;3.85;100.00
19748;BME280;10032;51.386;12.516;2024-03-06T02:09:01;100513.91;;;3.83;100.00
19748;BME280;10032;51.386;12.516;2024-03-06T02:11:28;100510.19;;;3.84;100.00
19748;BME280;10032;51.386;12.516;2024-03-06T02:13:54;100510.19;;;3.84;100.00
19748;BME280;10032;51.386;12.516;2024-03-06T02:16:20;100511.00;;;3.85;100.00
19748;BME280;10032;51.386;12.516;2024-03-06T02:18:52;100509.78;;;3.81;100.00
19748;BME280;10032;51.386;12.516;2024-03-06T02:21:22;100507.03;;;3.74;100.00
19748;BME280;10032;51.386;12.516;2024-03-06T02:23:48;100509.09;;;3.72;100.00
19748;BME280;10032;51.386;12.516;2024-03-06T02:26:16;100511.31;;;3.69;100.00
19748;BME280;10032;51.386;12.516;2024-03-06T02:29:08;100510.09;;;3.65;100.00
19748;BME280;10032;51.386;12.516;2024-03-06T02:31:34;100518.50;;;3.62;100.00
19748;BME280;10032;51.386;12.516;2024-03-06T02:33:59;100515.22;;;3.66;100.00
19748;BME280;10032;51.386;12.516;2024-03-06T02:36:27;100520.78;;;3.65;100.00
19748;BME280;10032;51.386;12.516;2024-03-06T02:38:53;100532.06;;;3.60;100.00
19748;BME280;10032;51.386;12.516;2024-03-06T02:41:18;100525.00;;;3.53;100.00
19748;BME280;10032;51.386;12.516;2024-03-06T02:43:43;100529.75;;;3.51;100.00
19748;BME280;10032;51.386;12.516;2024-03-06T02:46:09;100523.56;;;3.50;100.00
19748;BME280;10032;51.386;12.516;2024-03-06T02:48:34;100526.03;;;3.52;100.00
19748;BME280;10032;51.386;12.516;2024-03-06T02:51:00;100525.13;;;3.38;100.00
19748;BME280;10032;51.386;12.516;2024-03-06T02:53:25;100526.41;;;3.42;100.00
19748;BME280;10032;51.386;12.516;2024-03-06T02:55:51;100540.41;;;3.44;100.00
19748;BME280;10032;51.386;12.516;2024-03-06T02:58:17;100536.25;;;3.42;100.00
19748;BME280;10032;51.386;12.516;2024-03-06T03:00:43;100536.84;;;3.37;100.00
19748;BME280;10032;51.386;12.516;2024-03-06T03:03:09;100536.78;;;3.31;100.00
19748;BME280;10032;51.386;12.516;2024-03-06T03:05:35;100534.47;;;3.21;100.00
19748;BME280;10032;51.386;12.516;2024-03-06T03:08:01;100540.59;;;3.15;100.00
19748;BME280;10032;51.386;12.516;2024-03-06T03:10:29;100548.97;;;3.12;100.00
19748;BME280;10032;51.386;12.516;2024-03-06T03:12:54;100549.56;;;3.08;100.00
19748;BME280;10032;51.386;12.516;2024-03-06T03:15:20;100547.69;;;3.08;100.00
19748;BME280;10032;51.386;12.516;2024-03-06T03:17:45;100552.88;;;3.10;100.00
19748;BME280;10032;51.386;12.516;2024-03-06T03:20:11;100559.69;;;3.12;100.00
19748;BME280;10032;51.386;12.516;2024-03-06T03:22:38;100559.69;;;3.12;100.00
19748;BME280;10032;51.386;12.516;2024-03-06T03:25:06;100557.00;;;3.12;100.00
19748;BME280;10032;51.386;12.516;2024-03-06T03:27:32;100562.63;;;3.17;100.00
19748;BME280;10032;51.386;12.516;2024-03-06T03:29:58;100572.69;;;3.15;100.00
19748;BME280;10032;51.386;12.516;2024-03-06T03:32:24;100566.44;;;3.08;100.00
19748;BME280;10032;51.386;12.516;2024-03-06T03:34:49;100568.22;;;3.01;100.00
19748;BME280;10032;51.386;12.516;2024-03-06T03:37:14;100564.34;;;3.04;100.00
19748;BME280;10032;51.386;12.516;2024-03-06T03:39:40;100566.84;;;3.05;100.00
19748;BME280;10032;51.386;12.516;2024-03-06T03:42:07;100561.47;;;3.05;100.00
19748;BME280;10032;51.386;12.516;2024-03-06T03:44:32;100565.56;;;3.01;100.00
19748;BME280;10032;51.386;12.516;2024-03-06T03:46:58;100562.25;;;2.99;100.00
19748;BME280;10032;51.386;12.516;2024-03-06T03:49:23;100567.16;;;2.96;100.00
19748;BME280;10032;51.386;12.516;2024-03-06T03:51:49;100574.53;;;2.94;100.00
19748;BME280;10032;51.386;12.516;2024-03-06T03:54:14;100575.38;;;2.94;100.00
19748;BME280;10032;51.386;12.516;2024-03-06T03:56:40;100584.44;;;2.93;100.00
19748;BME280;10032;51.386;12.516;2024-03-06T03:59:05;100586.44;;;2.91;100.00
19748;BME280;10032;51.386;12.516;2024-03-06T04:01:31;100580.47;;;2.89;100.00
19748;BME280;10032;51.386;12.516;2024-03-06T04:03:56;100586.00;;;2.88;100.00
19748;BME280;10032;51.386;12.516;2024-03-06T04:06:21;100587.84;;;2.87;100.00
19748;BME280;10032;51.386;12.516;2024-03-06T04:08:47;100585.16;;;2.87;100.00
19748;BME280;10032;51.386;12.516;2024-03-06T04:11:13;100589.88;;;2.85;100.00
19748;BME280;10032;51.386;12.516;2024-03-06T04:13:39;100597.06;;;2.85;100.00
19748;BME280;10032;51.386;12.516;2024-03-06T04:16:05;100592.56;;;2.85;100.00
19748;BME280;10032;51.386;12.516;2024-03-06T04:18:31;100592.72;;;2.84;100.00
19748;BME280;10032;51.386;12.516;2024-03-06T04:21:06;100594.59;;;2.83;100.00
19748;BME280;10032;51.386;12.516;2024-03-06T04:23:32;100594.97;;;2.80;100.00
19748;BME280;10032;51.386;12.516;2024-03-06T04:25:58;100599.50;;;2.80;100.00
19748;BME280;10032;51.386;12.516;2024-03-06T04:28:24;100600.06;;;2.75;100.00
19748;BME280;10032;51.386;12.516;2024-03-06T04:30:49;100602.72;;;2.75;100.00
19748;BME280;10032;51.386;12.516;2024-03-06T04:33:15;100603.13;;;2.72;100.00
19748;BME280;10032;51.386;12.516;2024-03-06T04:35:41;100600.19;;;2.67;100.00
19748;BME280;10032;51.386;12.516;2024-03-06T04:38:06;100611.63;;;2.61;100.00
19748;BME280;10032;51.386;12.516;2024-03-06T04:40:32;100611.34;;;2.56;100.00
19748;BME280;10032;51.386;12.516;2024-03-06T04:42:57;100612.34;;;2.55;100.00
19748;BME280;10032;51.386;12.516;2024-03-06T04:45:23;100618.34;;;2.57;100.00
19748;BME280;10032;51.386;12.516;2024-03-06T04:47:48;100619.38;;;2.56;100.00
19748;BME280;10032;51.386;12.516;2024-03-06T04:50:14;100623.03;;;2.55;100.00
19748;BME280;10032;51.386;12.516;2024-03-06T04:52:40;100627.41;;;2.56;100.00
19748;BME280;10032;51.386;12.516;2024-03-06T04:55:06;100619.75;;;2.53;100.00
19748;BME280;10032;51.386;12.516;2024-03-06T04:57:32;100626.91;;;2.53;100.00
19748;BME280;10032;51.386;12.516;2024-03-06T04:59:58;100630.78;;;2.50;100.00
19748;BME280;10032;51.386;12.516;2024-03-06T05:02:24;100623.34;;;2.46;100.00
19748;BME280;10032;51.386;12.516;2024-03-06T05:04:51;100630.63;;;2.37;100.00
19748;BME280;10032;51.386;12.516;2024-03-06T05:07:16;100620.69;;;2.31;100.00
19748;BME280;10032;51.386;12.516;2024-03-06T05:09:41;100624.56;;;2.29;100.00
19748;BME280;10032;51.386;12.516;2024-03-06T05:12:07;100636.28;;;2.28;100.00
19748;BME280;10032;51.386;12.516;2024-03-06T05:14:33;100632.13;;;2.25;100.00
19748;BME280;10032;51.386;12.516;2024-03-06T05:16:59;100634.50;;;2.20;100.00
19748;BME280;10032;51.386;12.516;2024-03-06T05:19:24;100633.50;;;2.21;100.00
19748;BME280;10032;51.386;12.516;2024-03-06T05:21:59;100633.22;;;2.16;100.00
19748;BME280;10032;51.386;12.516;2024-03-06T05:24:25;100638.56;;;2.16;100.00
19748;BME280;10032;51.386;12.516;2024-03-06T05:26:53;100643.44;;;2.13;100.00
19748;BME280;10032;51.386;12.516;2024-03-06T05:29:18;100639.94;;;2.12;100.00
19748;BME280;10032;51.386;12.516;2024-03-06T05:31:44;100648.63;;;2.14;100.00
19748;BME280;10032;51.386;12.516;2024-03-06T05:34:09;100647.78;;;2.14;100.00
19748;BME280;10032;51.386;12.516;2024-03-06T05:36:35;100649.53;;;2.07;100.00
19748;BME280;10032;51.386;12.516;2024-03-06T05:39:00;100647.03;;;2.05;100.00
19748;BME280;10032;51.386;12.516;2024-03-06T05:41:26;100647.59;;;2.01;100.00
19748;BME280;10032;51.386;12.516;2024-03-06T05:43:51;100648.97;;;1.97;100.00
19748;BME280;10032;51.386;12.516;2024-03-06T05:46:17;100648.13;;;1.96;100.00
19748;BME280;10032;51.386;12.516;2024-03-06T05:48:42;100658.00;;;1.96;100.00
19748;BME280;10032;51.386;12.516;2024-03-06T05:51:08;100653.16;;;1.91;100.00
19748;BME280;10032;51.386;12.516;2024-03-06T05:53:37;100655.03;;;1.91;100.00
19748;BME280;10032;51.386;12.516;2024-03-06T05:56:06;100664.03;;;1.90;100.00
19748;BME280;10032;51.386;12.516;2024-03-06T05:58:31;100666.69;;;1.90;100.00
19748;BME280;10032;51.386;12.516;2024-03-06T06:00:57;100663.56;;;1.86;100.00
19748;BME280;10032;51.386;12.516;2024-03-06T06:03:23;100674.63;;;1.83;100.00
19748;BME280;10032;51.386;12.516;2024-03-06T06:05:48;100674.63;;;1.83;100.00
19748;BME280;10032;51.386;12.516;2024-03-06T06:08:13;100677.94;;;1.85;100.00
19748;BME280;10032;51.386;12.516;2024-03-06T06:10:39;100679.41;;;1.88;100.00
19748;BME280;10032;51.386;12.516;2024-03-06T06:13:04;100692.78;;;1.88;100.00
19748;BME280;10032;51.386;12.516;2024-03-06T06:15:30;100682.56;;;1.91;100.00
19748;BME280;10032;51.386;12.516;2024-03-06T06:17:55;100688.75;;;1.92;100.00
19748;BME280;10032;51.386;12.516;2024-03-06T06:20:21;100690.94;;;1.88;100.00
19748;BME280;10032;51.386;12.516;2024-03-06T06:22:46;100699.03;;;1.95;100.00
19748;BME280;10032;51.386;12.516;2024-03-06T06:25:12;100699.88;;;1.95;100.00
19748;BME280;10032;51.386;12.516;2024-03-06T06:27:38;100704.03;;;1.98;100.00
19748;BME280;10032;51.386;12.516;2024-03-06T06:30:03;100702.22;;;1.98;100.00
19748;BME280;10032;51.386;12.516;2024-03-06T06:32:29;100704.88;;;1.98;100.00
19748;BME280;10032;51.386;12.516;2024-03-06T06:34:55;100705.22;;;1.95;100.00
19748;BME280;10032;51.386;12.516;2024-03-06T06:37:21;100706.06;;;1.96;100.00
19748;BME280;10032;51.386;12.516;2024-03-06T06:39:46;100710.88;;;2.00;100.00
19748;BME280;10032;51.386;12.516;2024-03-06T06:42:13;100711.50;;;2.02;100.00
19748;BME280;10032;51.386;12.516;2024-03-06T06:44:39;100712.00;;;2.06;100.00
19748;BME280;10032;51.386;12.516;2024-03-06T06:47:04;100719.81;;;2.07;100.00
19748;BME280;10032;51.386;12.516;2024-03-06T06:49:29;100719.47;;;2.10;100.00
19748;BME280;10032;51.386;12.516;2024-03-06T06:51:55;100719.06;;;2.13;100.00
19748;BME280;10032;51.386;12.516;2024-03-06T06:54:20;100719.38;;;2.18;100.00
19748;BME280;10032;51.386;12.516;2024-03-06T06:56:47;100720.66;;;2.22;100.00
19748;BME280;10032;51.386;12.516;2024-03-06T06:59:13;100734.59;;;2.32;100.00
19748;BME280;10032;51.386;12.516;2024-03-06T07:01:39;100733.22;;;2.36;100.00
19748;BME280;10032;51.386;12.516;2024-03-06T07:04:06;100738.88;;;2.41;100.00
19748;BME280;10032;51.386;12.516;2024-03-06T07:06:31;100736.81;;;2.43;100.00
19748;BME280;10032;51.386;12.516;2024-03-06T07:08:57;100738.22;;;2.54;100.00
19748;BME280;10032;51.386;12.516;2024-03-06T07:11:22;100748.00;;;2.61;100.00
19748;BME280;10032;51.386;12.516;2024-03-06T07:13:48;100751.59;;;2.68;100.00
19748;BME280;10032;51.386;12.516;2024-03-06T07:16:13;100751.44;;;2.70;100.00
19748;BME280;10032;51.386;12.516;2024-03-06T07:18:39;100753.63;;;2.81;100.00
19748;BME280;10032;51.386;12.516;2024-03-06T07:21:05;100755.75;;;2.85;100.00
19748;BME280;10032;51.386;12.516;2024-03-06T07:23:30;100762.28;;;2.97;100.00
19748;BME280;10032;51.386;12.516;2024-03-06T07:25:56;100761.19;;;3.06;100.00
19748;BME280;10032;51.386;12.516;2024-03-06T07:28:23;100761.25;;;3.13;100.00
19748;BME280;10032;51.386;12.516;2024-03-06T07:30:50;100774.00;;;3.25;100.00
19748;BME280;10032;51.386;12.516;2024-03-06T07:33:16;100777.22;;;3.35;100.00
19748;BME280;10032;51.386;12.516;2024-03-06T07:35:41;100783.06;;;3.45;100.00
19748;BME280;10032;51.386;12.516;2024-03-06T07:38:07;100782.69;;;3.48;100.00
19748;BME280;10032;51.386;12.516;2024-03-06T07:40:32;100788.59;;;3.58;100.00
19748;BME280;10032;51.386;12.516;2024-03-06T07:42:58;100789.47;;;3.65;100.00
19748;BME280;10032;51.386;12.516;2024-03-06T07:45:25;100795.50;;;3.67;100.00
19748;BME280;10032;51.386;12.516;2024-03-06T07:47:51;100802.78;;;3.73;100.00
19748;BME280;10032;51.386;12.516;2024-03-06T07:50:16;100793.56;;;3.82;100.00
19748;BME280;10032;51.386;12.516;2024-03-06T07:52:45;100800.66;;;3.90;100.00
19748;BME280;10032;51.386;12.516;2024-03-06T07:55:11;100788.63;;;4.00;100.00
19748;BME280;10032;51.386;12.516;2024-03-06T07:57:36;100793.72;;;4.16;100.00
19748;BME280;10032;51.386;12.516;2024-03-06T08:00:03;100803.06;;;4.20;100.00
19748;BME280;10032;51.386;12.516;2024-03-06T08:02:48;100800.91;;;4.37;100.00
19748;BME280;10032;51.386;12.516;2024-03-06T08:05:17;100809.25;;;4.48;100.00
19748;BME280;10032;51.386;12.516;2024-03-06T08:07:42;100815.00;;;4.45;100.00
19748;BME280;10032;51.386;12.516;2024-03-06T08:10:10;100807.75;;;4.39;100.00
19748;BME280;10032;51.386;12.516;2024-03-06T08:12:40;100817.06;;;4.43;100.00
19748;BME280;10032;51.386;12.516;2024-03-06T08:15:08;100812.31;;;4.45;100.00
19748;BME280;10032;51.386;12.516;2024-03-06T08:17:35;100821.09;;;4.54;100.00
19748;BME280;10032;51.386;12.516;2024-03-06T08:20:02;100819.91;;;4.63;100.00
19748;BME280;10032;51.386;12.516;2024-03-06T08:22:28;100821.59;;;4.70;100.00
19748;BME280;10032;51.386;12.516;2024-03-06T08:24:53;100829.78;;;4.90;100.00
19748;BME280;10032;51.386;12.516;2024-03-06T08:27:19;100828.03;;;5.03;100.00
19748;BME280;10032;51.386;12.516;2024-03-06T08:29:45;100830.56;;;5.11;100.00
19748;BME280;10032;51.386;12.516;2024-03-06T08:32:11;100840.69;;;5.16;100.00
19748;BME280;10032;51.386;12.516;2024-03-06T08:34:36;100843.06;;;5.25;100.00
19748;BME280;10032;51.386;12.516;2024-03-06T08:37:01;100840.47;;;5.45;100.00
19748;BME280;10032;51.386;12.516;2024-03-06T08:39:27;100850.22;;;5.52;100.00
19748;BME280;10032;51.386;12.516;2024-03-06T08:41:52;100844.41;;;5.55;100.00
19748;BME280;10032;51.386;12.516;2024-03-06T08:44:18;100854.94;;;5.50;100.00
19748;BME280;10032;51.386;12.516;2024-03-06T08:46:43;100846.53;;;5.66;100.00
19748;BME280;10032;51.386;12.516;2024-03-06T08:49:09;100846.75;;;5.71;100.00
19748;BME280;10032;51.386;12.516;2024-03-06T08:51:35;100846.78;;;5.78;100.00
19748;BME280;10032;51.386;12.516;2024-03-06T08:54:01;100846.44;;;5.81;100.00
19748;BME280;10032;51.386;12.516;2024-03-06T08:56:27;100851.81;;;5.87;100.00
19748;BME280;10032;51.386;12.516;2024-03-06T08:58:53;100846.28;;;5.95;100.00
19748;BME280;10032;51.386;12.516;2024-03-06T09:01:18;100847.75;;;6.04;100.00
19748;BME280;10032;51.386;12.516;2024-03-06T09:03:44;100849.03;;;6.21;100.00
19748;BME280;10032;51.386;12.516;2024-03-06T09:06:09;100851.50;;;6.29;100.00
19748;BME280;10032;51.386;12.516;2024-03-06T09:08:36;100849.06;;;6.47;100.00
19748;BME280;10032;51.386;12.516;2024-03-06T09:11:01;100855.25;;;6.67;100.00
19748;BME280;10032;51.386;12.516;2024-03-06T09:13:27;100856.94;;;6.62;100.00
19748;BME280;10032;51.386;12.516;2024-03-06T09:15:55;100859.22;;;6.58;100.00
19748;BME280;10032;51.386;12.516;2024-03-06T09:18:21;100854.44;;;6.86;100.00
19748;BME280;10032;51.386;12.516;2024-03-06T09:20:46;100856.50;;;7.04;100.00
19748;BME280;10032;51.386;12.516;2024-03-06T09:23:12;100864.78;;;7.15;100.00
19748;BME280;10032;51.386;12.516;2024-03-06T09:25:37;100861.19;;;7.34;100.00
19748;BME280;10032;51.386;12.516;2024-03-06T09:28:03;100855.19;;;7.32;100.00
19748;BME280;10032;51.386;12.516;2024-03-06T09:30:30;100859.94;;;7.37;100.00
19748;BME280;10032;51.386;12.516;2024-03-06T09:32:55;100861.31;;;7.65;100.00
19748;BME280;10032;51.386;12.516;2024-03-06T09:35:21;100858.88;;;7.57;100.00
19748;BME280;10032;51.386;12.516;2024-03-06T09:37:47;100864.22;;;7.64;100.00
19748;BME280;10032;51.386;12.516;2024-03-06T09:40:19;100866.00;;;7.89;100.00
19748;BME280;10032;51.386;12.516;2024-03-06T09:42:46;100867.31;;;8.11;100.00
19748;BME280;10032;51.386;12.516;2024-03-06T09:45:11;100882.69;;;8.04;100.00
19748;BME280;10032;51.386;12.516;2024-03-06T09:47:38;100869.56;;;8.21;100.00
19748;BME280;10032;51.386;12.516;2024-03-06T09:50:08;100876.38;;;8.30;100.00
19748;BME280;10032;51.386;12.516;2024-03-06T09:52:36;100877.63;;;8.34;100.00
19748;BME280;10032;51.386;12.516;2024-03-06T09:55:02;100871.38;;;8.33;100.00
19748;BME280;10032;51.386;12.516;2024-03-06T09:57:29;100879.13;;;8.54;100.00
19748;BME280;10032;51.386;12.516;2024-03-06T09:59:55;100873.72;;;8.54;100.00
19748;BME280;10032;51.386;12.516;2024-03-06T10:02:37;100879.81;;;8.74;100.00
19748;BME280;10032;51.386;12.516;2024-03-06T10:05:03;100876.41;;;8.85;100.00
19748;BME280;10032;51.386;12.516;2024-03-06T10:07:29;100879.66;;;8.94;100.00
19748;BME280;10032;51.386;12.516;2024-03-06T10:09:55;100874.50;;;8.86;100.00
19748;BME280;10032;51.386;12.516;2024-03-06T10:12:21;100885.38;;;9.04;100.00
19748;BME280;10032;51.386;12.516;2024-03-06T10:14:53;100879.69;;;8.87;100.00
19748;BME280;10032;51.386;12.516;2024-03-06T10:17:20;100892.16;;;8.88;100.00
19748;BME280;10032;51.386;12.516;2024-03-06T10:19:48;100891.97;;;8.83;100.00
19748;BME280;10032;51.386;12.516;2024-03-06T10:22:18;100897.47;;;9.01;100.00
19748;BME280;10032;51.386;12.516;2024-03-06T10:24:44;100895.00;;;9.18;100.00
19748;BME280;10032;51.386;12.516;2024-03-06T10:27:14;100898.28;;;9.26;100.00
19748;BME280;10032;51.386;12.516;2024-03-06T10:29:41;100904.91;;;9.48;100.00
19748;BME280;10032;51.386;12.516;2024-03-06T10:32:07;100905.13;;;9.29;100.00
19748;BME280;10032;51.386;12.516;2024-03-06T10:34:34;100910.00;;;9.38;100.00
19748;BME280;10032;51.386;12.516;2024-03-06T10:37:02;100905.66;;;9.37;100.00
19748;BME280;10032;51.386;12.516;2024-03-06T10:39:30;100903.47;;;9.46;100.00
19748;BME280;10032;51.386;12.516;2024-03-06T10:42:02;100906.88;;;9.59;100.00
19748;BME280;10032;51.386;12.516;2024-03-06T10:44:27;100906.34;;;9.51;100.00
19748;BME280;10032;51.386;12.516;2024-03-06T10:47:04;100910.69;;;9.52;100.00
19748;BME280;10032;51.386;12.516;2024-03-06T10:49:31;100905.06;;;9.53;100.00
19748;BME280;10032;51.386;12.516;2024-03-06T10:52:00;100907.16;;;9.51;100.00
19748;BME280;10032;51.386;12.516;2024-03-06T10:54:30;100904.16;;;9.59;100.00
19748;BME280;10032;51.386;12.516;2024-03-06T10:56:57;100908.22;;;9.86;100.00
19748;BME280;10032;51.386;12.516;2024-03-06T10:59:27;100909.72;;;10.00;100.00
19748;BME280;10032;51.386;12.516;2024-03-06T11:01:57;100906.50;;;10.10;100.00
19748;BME280;10032;51.386;12.516;2024-03-06T11:04:28;100903.97;;;10.26;100.00
19748;BME280;10032;51.386;12.516;2024-03-06T11:06:59;100910.16;;;10.33;100.00
19748;BME280;10032;51.386;12.516;2024-03-06T11:09:26;100910.22;;;10.27;100.00
19748;BME280;10032;51.386;12.516;2024-03-06T11:11:52;100920.06;;;10.39;100.00
19748;BME280;10032;51.386;12.516;2024-03-06T11:14:20;100914.44;;;10.52;100.00
19748;BME280;10032;51.386;12.516;2024-03-06T11:16:58;100922.66;;;10.75;100.00
19748;BME280;10032;51.386;12.516;2024-03-06T11:19:25;100915.78;;;10.61;100.00
19748;BME280;10032;51.386;12.516;2024-03-06T11:21:50;100917.56;;;10.67;100.00
19748;BME280;10032;51.386;12.516;2024-03-06T11:24:18;100920.34;;;10.49;100.00
19748;BME280;10032;51.386;12.516;2024-03-06T11:27:04;100910.94;;;10.63;100.00
19748;BME280;10032;51.386;12.516;2024-03-06T11:30:07;100915.53;;;11.04;100.00
19748;BME280;10032;51.386;12.516;2024-03-06T11:32:37;100912.25;;;11.13;100.00
19748;BME280;10032;51.386;12.516;2024-03-06T11:35:04;100914.97;;;11.25;100.00
19748;BME280;10032;51.386;12.516;2024-03-06T11:37:33;100919.09;;;11.16;100.00
19748;BME280;10032;51.386;12.516;2024-03-06T11:40:01;100915.78;;;11.25;100.00
19748;BME280;10032;51.386;12.516;2024-03-06T11:42:36;100911.19;;;11.49;100.00
19748;BME280;10032;51.386;12.516;2024-03-06T11:45:12;100918.72;;;11.01;100.00
19748;BME280;10032;51.386;12.516;2024-03-06T11:48:02;100914.53;;;10.75;100.00
19748;BME280;10032;51.386;12.516;2024-03-06T11:50:28;100912.38;;;10.66;100.00
19748;BME280;10032;51.386;12.516;2024-03-06T11:52:57;100912.25;;;10.61;100.00
19748;BME280;10032;51.386;12.516;2024-03-06T11:55:23;100914.34;;;10.59;100.00
19748;BME280;10032;51.386;12.516;2024-03-06T11:57:51;100901.25;;;10.97;100.00
19748;BME280;10032;51.386;12.516;2024-03-06T12:00:21;100903.97;;;11.08;100.00
19748;BME280;10032;51.386;12.516;2024-03-06T12:02:47;100901.41;;;11.25;100.00
19748;BME280;10032;51.386;12.516;2024-03-06T12:05:12;100904.44;;;11.51;100.00
19748;BME280;10032;51.386;12.516;2024-03-06T12:07:46;100910.84;;;11.68;100.00
19748;BME280;10032;51.386;12.516;2024-03-06T12:10:11;100898.44;;;11.49;100.00
19748;BME280;10032;51.386;12.516;2024-03-06T12:12:36;100908.25;;;11.50;100.00
19748;BME280;10032;51.386;12.516;2024-03-06T12:15:04;100909.88;;;11.51;100.00
19748;BME280;10032;51.386;12.516;2024-03-06T12:17:29;100904.81;;;11.55;100.00
19748;BME280;10032;51.386;12.516;2024-03-06T12:19:56;100907.09;;;11.69;100.00
19748;BME280;10032;51.386;12.516;2024-03-06T12:22:25;100901.59;;;11.92;100.00
19748;BME280;10032;51.386;12.516;2024-03-06T12:25:00;100905.97;;;11.93;100.00
19748;BME280;10032;51.386;12.516;2024-03-06T12:27:26;100903.31;;;11.59;98.41
19748;BME280;10032;51.386;12.516;2024-03-06T12:29:53;100904.09;;;11.71;100.00
19748;BME280;10032;51.386;12.516;2024-03-06T12:32:19;100905.84;;;11.88;100.00
19748;BME280;10032;51.386;12.516;2024-03-06T12:34:55;100904.72;;;11.61;99.34
19748;BME280;10032;51.386;12.516;2024-03-06T12:37:28;100915.31;;;11.28;97.42